sensor_id;sensor_type;location;lat;lon;timestamp;P1;durP1;ratioP1;P2;durP2;ratioP2
13090;SDS011;6611;52.604;13.438;2023-05-07T00:00:56;10.40;;;8.13;;
13090;SDS011;6611;52.604;13.438;2023-05-07T00:06:00;11.23;;;7.57;;
13090;SDS011;6611;52.604;13.438;2023-05-07T00:11:02;13.17;;;8.03;;
13090;SDS011;6611;52.604;13.438;2023-05-07T00:16:04;9.30;;;7.30;;
13090;SDS011;6611;52.604;13.438;2023-05-07T00:21:07;10.73;;;8.53;;
13090;SDS011;6611;52.604;13.438;2023-05-07T00:26:09;10.93;;;7.73;;
13090;SDS011;6611;52.604;13.438;2023-05-07T00:31:11;9.03;;;7.27;;
13090;SDS011;6611;52.604;13.438;2023-05-07T00:36:14;10.80;;;8.03;;
13090;SDS011;6611;52.604;13.438;2023-05-07T00:41:15;9.87;;;8.03;;
13090;SDS011;6611;52.604;13.438;2023-05-07T00:46:17;11.10;;;8.47;;
13090;SDS011;6611;52.604;13.438;2023-05-07T00:51:22;9.80;;;7.93;;
13090;SDS011;6611;52.604;13.438;2023-05-07T00:56:25;13.90;;;8.57;;
13090;SDS011;6611;52.604;13.438;2023-05-07T01:01:27;9.77;;;7.73;;
13090;SDS011;6611;52.604;13.438;2023-05-07T01:06:30;11.60;;;8.13;;
13090;SDS011;6611;52.604;13.438;2023-05-07T01:11:34;10.83;;;7.93;;
13090;SDS011;6611;52.604;13.438;2023-05-07T01:16:36;9.67;;;7.70;;
13090;SDS011;6611;52.604;13.438;2023-05-07T01:21:39;10.80;;;8.27;;
13090;SDS011;6611;52.604;13.438;2023-05-07T01:26:48;11.07;;;8.70;;
13090;SDS011;6611;52.604;13.438;2023-05-07T01:31:50;10.07;;;8.37;;
13090;SDS011;6611;52.604;13.438;2023-05-07T01:36:53;11.60;;;8.17;;
13090;SDS011;6611;52.604;13.438;2023-05-07T01:41:59;11.57;;;8.50;;
13090;SDS011;6611;52.604;13.438;2023-05-07T01:47:01;11.77;;;7.83;;
13090;SDS011;6611;52.604;13.438;2023-05-07T01:52:03;12.07;;;7.80;;
13090;SDS011;6611;52.604;13.438;2023-05-07T01:57:07;12.27;;;8.43;;
13090;SDS011;6611;52.604;13.438;2023-05-07T02:02:08;9.73;;;7.70;;
13090;SDS011;6611;52.604;13.438;2023-05-07T02:07:10;10.27;;;8.20;;
13090;SDS011;6611;52.604;13.438;2023-05-07T02:12:13;10.37;;;7.70;;
13090;SDS011;6611;52.604;13.438;2023-05-07T02:17:15;9.00;;;6.97;;
13090;SDS011;6611;52.604;13.438;2023-05-07T02:22:16;9.30;;;6.93;;
13090;SDS011;6611;52.604;13.438;2023-05-07T02:27:20;8.43;;;6.90;;
13090;SDS011;6611;52.604;13.438;2023-05-07T02:32:22;9.10;;;6.63;;
13090;SDS011;6611;52.604;13.438;2023-05-07T02:37:23;9.67;;;7.10;;
13090;SDS011;6611;52.604;13.438;2023-05-07T02:42:26;9.57;;;6.57;;
13090;SDS011;6611;52.604;13.438;2023-05-07T02:47:28;10.70;;;7.10;;
13090;SDS011;6611;52.604;13.438;2023-05-07T02:52:29;8.63;;;6.67;;
13090;SDS011;6611;52.604;13.438;2023-05-07T02:57:34;10.73;;;7.23;;
13090;SDS011;6611;52.604;13.438;2023-05-07T03:02:35;7.83;;;5.83;;
13090;SDS011;6611;52.604;13.438;2023-05-07T03:07:37;8.70;;;6.17;;
13090;SDS011;6611;52.604;13.438;2023-05-07T03:12:40;7.70;;;6.30;;
13090;SDS011;6611;52.604;13.438;2023-05-07T03:17:42;7.53;;;6.00;;
13090;SDS011;6611;52.604;13.438;2023-05-07T03:22:44;7.97;;;6.40;;
13090;SDS011;6611;52.604;13.438;2023-05-07T03:27:47;8.33;;;5.77;;
13090;SDS011;6611;52.604;13.438;2023-05-07T03:32:49;7.50;;;5.93;;
13090;SDS011;6611;52.604;13.438;2023-05-07T03:37:50;7.53;;;5.63;;
13090;SDS011;6611;52.604;13.438;2023-05-07T03:42:53;9.77;;;6.00;;
13090;SDS011;6611;52.604;13.438;2023-05-07T03:47:55;7.97;;;6.13;;
13090;SDS011;6611;52.604;13.438;2023-05-07T03:52:56;8.57;;;6.03;;
13090;SDS011;6611;52.604;13.438;2023-05-07T03:57:59;7.50;;;5.43;;
13090;SDS011;6611;52.604;13.438;2023-05-07T04:03:01;7.73;;;5.73;;
13090;SDS011;6611;52.604;13.438;2023-05-07T04:08:04;6.27;;;5.20;;
13090;SDS011;6611;52.604;13.438;2023-05-07T04:13:07;7.53;;;5.50;;
13090;SDS011;6611;52.604;13.438;2023-05-07T04:18:09;9.17;;;5.63;;
13090;SDS011;6611;52.604;13.438;2023-05-07T04:23:11;9.80;;;6.13;;
13090;SDS011;6611;52.604;13.438;2023-05-07T04:28:14;6.27;;;5.00;;
13090;SDS011;6611;52.604;13.438;2023-05-07T04:33:15;7.07;;;5.87;;
13090;SDS011;6611;52.604;13.438;2023-05-07T04:38:18;6.70;;;5.20;;
13090;SDS011;6611;52.604;13.438;2023-05-07T04:43:21;6.87;;;5.50;;
13090;SDS011;6611;52.604;13.438;2023-05-07T04:48:22;7.33;;;5.67;;
13090;SDS011;6611;52.604;13.438;2023-05-07T04:53:24;7.20;;;5.90;;
13090;SDS011;6611;52.604;13.438;2023-05-07T04:58:28;6.37;;;5.20;;
13090;SDS011;6611;52.604;13.438;2023-05-07T05:03:31;7.67;;;5.90;;
13090;SDS011;6611;52.604;13.438;2023-05-07T05:08:33;6.10;;;5.10;;
13090;SDS011;6611;52.604;13.438;2023-05-07T05:13:36;6.90;;;5.40;;
13090;SDS011;6611;52.604;13.438;2023-05-07T05:18:37;7.17;;;5.23;;
13090;SDS011;6611;52.604;13.438;2023-05-07T05:23:39;6.57;;;5.37;;
13090;SDS011;6611;52.604;13.438;2023-05-07T05:28:42;6.03;;;4.43;;
13090;SDS011;6611;52.604;13.438;2023-05-07T05:33:45;4.73;;;4.20;;
13090;SDS011;6611;52.604;13.438;2023-05-07T05:38:46;5.60;;;4.00;;
13090;SDS011;6611;52.604;13.438;2023-05-07T05:43:49;6.23;;;4.07;;
13090;SDS011;6611;52.604;13.438;2023-05-07T05:48:51;7.37;;;4.00;;
13090;SDS011;6611;52.604;13.438;2023-05-07T05:53:53;5.50;;;4.27;;
13090;SDS011;6611;52.604;13.438;2023-05-07T05:58:56;5.10;;;3.97;;
13090;SDS011;6611;52.604;13.438;2023-05-07T06:03:57;8.00;;;4.13;;
13090;SDS011;6611;52.604;13.438;2023-05-07T06:08:59;4.57;;;3.63;;
13090;SDS011;6611;52.604;13.438;2023-05-07T06:14:02;4.30;;;3.30;;
13090;SDS011;6611;52.604;13.438;2023-05-07T06:19:04;7.27;;;4.40;;
13090;SDS011;6611;52.604;13.438;2023-05-07T06:24:05;5.57;;;4.23;;
13090;SDS011;6611;52.604;13.438;2023-05-07T06:29:09;5.97;;;3.97;;
13090;SDS011;6611;52.604;13.438;2023-05-07T06:34:10;5.20;;;3.73;;
13090;SDS011;6611;52.604;13.438;2023-05-07T06:39:14;5.37;;;3.40;;
13090;SDS011;6611;52.604;13.438;2023-05-07T06:44:17;4.37;;;3.50;;
13090;SDS011;6611;52.604;13.438;2023-05-07T06:49:18;5.20;;;3.47;;
13090;SDS011;6611;52.604;13.438;2023-05-07T06:54:20;3.77;;;3.07;;
13090;SDS011;6611;52.604;13.438;2023-05-07T06:59:23;6.63;;;3.03;;
13090;SDS011;6611;52.604;13.438;2023-05-07T07:04:25;4.63;;;3.47;;
13090;SDS011;6611;52.604;13.438;2023-05-07T07:09:26;3.30;;;2.90;;
13090;SDS011;6611;52.604;13.438;2023-05-07T07:14:30;4.27;;;3.20;;
13090;SDS011;6611;52.604;13.438;2023-05-07T07:19:31;3.87;;;2.97;;
13090;SDS011;6611;52.604;13.438;2023-05-07T07:24:33;3.23;;;2.50;;
13090;SDS011;6611;52.604;13.438;2023-05-07T07:29:36;4.00;;;2.90;;
13090;SDS011;6611;52.604;13.438;2023-05-07T07:34:38;3.87;;;2.83;;
13090;SDS011;6611;52.604;13.438;2023-05-07T07:39:39;2.90;;;2.60;;
13090;SDS011;6611;52.604;13.438;2023-05-07T07:44:42;3.60;;;2.53;;
13090;SDS011;6611;52.604;13.438;2023-05-07T07:49:44;2.53;;;2.23;;
13090;SDS011;6611;52.604;13.438;2023-05-07T07:54:45;5.07;;;2.90;;
13090;SDS011;6611;52.604;13.438;2023-05-07T07:59:48;2.23;;;2.03;;
13090;SDS011;6611;52.604;13.438;2023-05-07T08:04:50;2.60;;;2.30;;
13090;SDS011;6611;52.604;13.438;2023-05-07T08:09:52;1.70;;;1.60;;
13090;SDS011;6611;52.604;13.438;2023-05-07T08:14:55;2.90;;;2.20;;
13090;SDS011;6611;52.604;13.438;2023-05-07T08:19:57;2.53;;;1.90;;
13090;SDS011;6611;52.604;13.438;2023-05-07T08:24:58;1.73;;;1.53;;
13090;SDS011;6611;52.604;13.438;2023-05-07T08:30:01;2.33;;;1.67;;
13090;SDS011;6611;52.604;13.438;2023-05-07T08:35:04;1.90;;;1.60;;
13090;SDS011;6611;52.604;13.438;2023-05-07T08:40:07;1.90;;;1.70;;
13090;SDS011;6611;52.604;13.438;2023-05-07T08:45:10;1.90;;;1.80;;
13090;SDS011;6611;52.604;13.438;2023-05-07T08:50:12;3.83;;;2.00;;
13090;SDS011;6611;52.604;13.438;2023-05-07T08:55:14;3.50;;;1.80;;
13090;SDS011;6611;52.604;13.438;2023-05-07T09:00:17;2.80;;;1.83;;
13090;SDS011;6611;52.604;13.438;2023-05-07T09:05:19;1.73;;;1.53;;
13090;SDS011;6611;52.604;13.438;2023-05-07T09:10:21;2.60;;;1.97;;
13090;SDS011;6611;52.604;13.438;2023-05-07T09:15:24;1.93;;;1.70;;
13090;SDS011;6611;52.604;13.438;2023-05-07T09:20:27;2.13;;;1.50;;
13090;SDS011;6611;52.604;13.438;2023-05-07T09:25:28;2.77;;;1.70;;
13090;SDS011;6611;52.604;13.438;2023-05-07T09:30:33;6.10;;;1.80;;
13090;SDS011;6611;52.604;13.438;2023-05-07T09:35:35;1.90;;;1.50;;
13090;SDS011;6611;52.604;13.438;2023-05-07T09:40:39;2.10;;;1.23;;
13090;SDS011;6611;52.604;13.438;2023-05-07T09:45:42;2.00;;;1.50;;
13090;SDS011;6611;52.604;13.438;2023-05-07T09:50:45;1.77;;;1.63;;
13090;SDS011;6611;52.604;13.438;2023-05-07T09:55:50;3.30;;;1.60;;
13090;SDS011;6611;52.604;13.438;2023-05-07T10:00:54;1.63;;;1.53;;
13090;SDS011;6611;52.604;13.438;2023-05-07T10:05:56;1.53;;;1.43;;
13090;SDS011;6611;52.604;13.438;2023-05-07T10:10:59;2.80;;;1.70;;
13090;SDS011;6611;52.604;13.438;2023-05-07T10:16:03;2.00;;;1.60;;
13090;SDS011;6611;52.604;13.438;2023-05-07T10:21:06;1.90;;;1.20;;
13090;SDS011;6611;52.604;13.438;2023-05-07T10:26:09;1.57;;;1.20;;
13090;SDS011;6611;52.604;13.438;2023-05-07T10:31:18;2.27;;;1.30;;
13090;SDS011;6611;52.604;13.438;2023-05-07T10:36:34;1.57;;;1.30;;
13090;SDS011;6611;52.604;13.438;2023-05-07T10:41:36;1.40;;;1.27;;
13090;SDS011;6611;52.604;13.438;2023-05-07T10:46:39;1.93;;;1.10;;
13090;SDS011;6611;52.604;13.438;2023-05-07T10:51:41;1.57;;;1.40;;
13090;SDS011;6611;52.604;13.438;2023-05-07T10:56:45;1.70;;;1.30;;
13090;SDS011;6611;52.604;13.438;2023-05-07T11:01:52;1.10;;;1.00;;
13090;SDS011;6611;52.604;13.438;2023-05-07T11:18:05;1.37;;;1.07;;
13090;SDS011;6611;52.604;13.438;2023-05-07T11:23:07;2.23;;;1.23;;
13090;SDS011;6611;52.604;13.438;2023-05-07T11:28:08;1.73;;;1.20;;
13090;SDS011;6611;52.604;13.438;2023-05-07T11:33:12;1.63;;;1.27;;
13090;SDS011;6611;52.604;13.438;2023-05-07T11:38:18;1.43;;;1.10;;
13090;SDS011;6611;52.604;13.438;2023-05-07T11:43:20;1.97;;;1.40;;
13090;SDS011;6611;52.604;13.438;2023-05-07T11:48:23;3.13;;;1.33;;
13090;SDS011;6611;52.604;13.438;2023-05-07T11:53:26;2.03;;;1.20;;
13090;SDS011;6611;52.604;13.438;2023-05-07T11:58:28;1.90;;;1.20;;
13090;SDS011;6611;52.604;13.438;2023-05-07T12:03:31;1.77;;;0.97;;
13090;SDS011;6611;52.604;13.438;2023-05-07T12:08:35;1.73;;;1.00;;
13090;SDS011;6611;52.604;13.438;2023-05-07T12:13:37;1.03;;;0.80;;
13090;SDS011;6611;52.604;13.438;2023-05-07T12:18:41;1.23;;;1.03;;
13090;SDS011;6611;52.604;13.438;2023-05-07T12:23:42;1.30;;;1.20;;
13090;SDS011;6611;52.604;13.438;2023-05-07T12:28:44;1.97;;;1.30;;
13090;SDS011;6611;52.604;13.438;2023-05-07T12:33:48;1.50;;;1.20;;
13090;SDS011;6611;52.604;13.438;2023-05-07T12:38:50;2.03;;;1.30;;
13090;SDS011;6611;52.604;13.438;2023-05-07T12:43:54;1.40;;;0.80;;
13090;SDS011;6611;52.604;13.438;2023-05-07T12:48:59;1.30;;;1.00;;
13090;SDS011;6611;52.604;13.438;2023-05-07T12:54:01;1.37;;;1.13;;
13090;SDS011;6611;52.604;13.438;2023-05-07T12:59:03;1.13;;;1.00;;
13090;SDS011;6611;52.604;13.438;2023-05-07T13:04:06;2.20;;;1.10;;
13090;SDS011;6611;52.604;13.438;2023-05-07T13:09:07;2.87;;;1.27;;
13090;SDS011;6611;52.604;13.438;2023-05-07T13:14:09;1.00;;;0.90;;
13090;SDS011;6611;52.604;13.438;2023-05-07T13:19:12;1.10;;;0.83;;
13090;SDS011;6611;52.604;13.438;2023-05-07T13:24:14;1.43;;;1.03;;
13090;SDS011;6611;52.604;13.438;2023-05-07T13:29:15;1.20;;;1.10;;
13090;SDS011;6611;52.604;13.438;2023-05-07T13:34:18;2.10;;;1.03;;
13090;SDS011;6611;52.604;13.438;2023-05-07T13:39:20;1.20;;;1.10;;
13090;SDS011;6611;52.604;13.438;2023-05-07T13:44:21;2.13;;;1.03;;
13090;SDS011;6611;52.604;13.438;2023-05-07T13:49:25;1.23;;;1.00;;
13090;SDS011;6611;52.604;13.438;2023-05-07T13:54:26;1.53;;;1.17;;
13090;SDS011;6611;52.604;13.438;2023-05-07T13:59:28;1.30;;;1.10;;
13090;SDS011;6611;52.604;13.438;2023-05-07T14:04:31;1.10;;;1.00;;
13090;SDS011;6611;52.604;13.438;2023-05-07T14:09:33;1.77;;;1.23;;
13090;SDS011;6611;52.604;13.438;2023-05-07T14:14:34;1.20;;;1.10;;
13090;SDS011;6611;52.604;13.438;2023-05-07T14:19:37;1.63;;;1.20;;
13090;SDS011;6611;52.604;13.438;2023-05-07T14:24:39;1.23;;;0.97;;
13090;SDS011;6611;52.604;13.438;2023-05-07T14:29:41;1.27;;;1.17;;
13090;SDS011;6611;52.604;13.438;2023-05-07T14:34:44;2.17;;;1.27;;
13090;SDS011;6611;52.604;13.438;2023-05-07T14:39:46;1.30;;;1.00;;
13090;SDS011;6611;52.604;13.438;2023-05-07T14:44:48;1.40;;;1.17;;
13090;SDS011;6611;52.604;13.438;2023-05-07T14:49:51;1.00;;;0.80;;
13090;SDS011;6611;52.604;13.438;2023-05-07T14:54:53;1.00;;;0.80;;
13090;SDS011;6611;52.604;13.438;2023-05-07T14:59:54;1.97;;;0.70;;
13090;SDS011;6611;52.604;13.438;2023-05-07T15:04:57;1.00;;;0.90;;
13090;SDS011;6611;52.604;13.438;2023-05-07T15:10:00;1.40;;;0.83;;
13090;SDS011;6611;52.604;13.438;2023-05-07T15:15:02;1.13;;;0.90;;
13090;SDS011;6611;52.604;13.438;2023-05-07T15:20:06;1.13;;;1.03;;
13090;SDS011;6611;52.604;13.438;2023-05-07T15:25:08;1.00;;;0.80;;
13090;SDS011;6611;52.604;13.438;2023-05-07T15:30:10;0.80;;;0.80;;
13090;SDS011;6611;52.604;13.438;2023-05-07T15:35:15;1.40;;;1.10;;
13090;SDS011;6611;52.604;13.438;2023-05-07T15:40:21;1.10;;;0.70;;
13090;SDS011;6611;52.604;13.438;2023-05-07T15:45:23;2.00;;;0.97;;
13090;SDS011;6611;52.604;13.438;2023-05-07T15:50:26;1.53;;;1.13;;
13090;SDS011;6611;52.604;13.438;2023-05-07T15:55:29;1.23;;;0.90;;
13090;SDS011;6611;52.604;13.438;2023-05-07T16:00:31;4.00;;;1.07;;
13090;SDS011;6611;52.604;13.438;2023-05-07T16:05:36;1.27;;;0.70;;
13090;SDS011;6611;52.604;13.438;2023-05-07T16:10:38;1.10;;;1.00;;
13090;SDS011;6611;52.604;13.438;2023-05-07T16:15:40;1.03;;;0.90;;
13090;SDS011;6611;52.604;13.438;2023-05-07T16:20:44;0.80;;;0.80;;
13090;SDS011;6611;52.604;13.438;2023-05-07T16:25:46;1.43;;;1.03;;
13090;SDS011;6611;52.604;13.438;2023-05-07T16:30:47;1.80;;;0.97;;
13090;SDS011;6611;52.604;13.438;2023-05-07T16:35:53;1.30;;;1.10;;
13090;SDS011;6611;52.604;13.438;2023-05-07T16:40:55;1.43;;;0.90;;
13090;SDS011;6611;52.604;13.438;2023-05-07T16:45:57;1.30;;;1.03;;
13090;SDS011;6611;52.604;13.438;2023-05-07T16:51:00;1.40;;;0.90;;
13090;SDS011;6611;52.604;13.438;2023-05-07T16:56:03;1.53;;;1.07;;
13090;SDS011;6611;52.604;13.438;2023-05-07T17:01:05;1.23;;;0.83;;
13090;SDS011;6611;52.604;13.438;2023-05-07T17:06:08;1.40;;;1.10;;
13090;SDS011;6611;52.604;13.438;2023-05-07T17:11:14;1.40;;;1.20;;
13090;SDS011;6611;52.604;13.438;2023-05-07T17:16:15;1.40;;;1.13;;
13090;SDS011;6611;52.604;13.438;2023-05-07T17:21:18;1.43;;;1.03;;
13090;SDS011;6611;52.604;13.438;2023-05-07T17:26:20;1.57;;;1.10;;
13090;SDS011;6611;52.604;13.438;2023-05-07T17:31:22;1.47;;;0.87;;
13090;SDS011;6611;52.604;13.438;2023-05-07T17:36:25;1.23;;;0.90;;
13090;SDS011;6611;52.604;13.438;2023-05-07T17:41:26;1.23;;;1.10;;
13090;SDS011;6611;52.604;13.438;2023-05-07T17:46:28;1.00;;;0.87;;
13090;SDS011;6611;52.604;13.438;2023-05-07T17:51:31;1.30;;;1.00;;
13090;SDS011;6611;52.604;13.438;2023-05-07T17:56:33;1.00;;;0.90;;
13090;SDS011;6611;52.604;13.438;2023-05-07T18:01:35;1.67;;;0.77;;
13090;SDS011;6611;52.604;13.438;2023-05-07T18:06:38;0.70;;;0.70;;
13090;SDS011;6611;52.604;13.438;2023-05-07T18:11:41;1.00;;;0.90;;
13090;SDS011;6611;52.604;13.438;2023-05-07T18:16:42;1.07;;;0.90;;
13090;SDS011;6611;52.604;13.438;2023-05-07T18:21:45;1.50;;;1.00;;
13090;SDS011;6611;52.604;13.438;2023-05-07T18:26:48;1.17;;;0.90;;
13090;SDS011;6611;52.604;13.438;2023-05-07T18:31:49;2.63;;;0.97;;
13090;SDS011;6611;52.604;13.438;2023-05-07T18:36:52;1.10;;;1.00;;
13090;SDS011;6611;52.604;13.438;2023-05-07T18:41:55;1.27;;;0.90;;
13090;SDS011;6611;52.604;13.438;2023-05-07T18:46:57;1.37;;;1.03;;
13090;SDS011;6611;52.604;13.438;2023-05-07T18:52:00;1.20;;;1.00;;
13090;SDS011;6611;52.604;13.438;2023-05-07T18:57:02;2.10;;;1.20;;
13090;SDS011;6611;52.604;13.438;2023-05-07T19:02:04;1.90;;;1.53;;
13090;SDS011;6611;52.604;13.438;2023-05-07T19:07:07;2.13;;;1.20;;
13090;SDS011;6611;52.604;13.438;2023-05-07T19:12:09;1.20;;;1.00;;
13090;SDS011;6611;52.604;13.438;2023-05-07T19:17:10;1.47;;;1.30;;
13090;SDS011;6611;52.604;13.438;2023-05-07T19:22:14;1.70;;;1.00;;
13090;SDS011;6611;52.604;13.438;2023-05-07T19:27:16;1.30;;;1.00;;
13090;SDS011;6611;52.604;13.438;2023-05-07T19:32:18;4.10;;;1.47;;
13090;SDS011;6611;52.604;13.438;2023-05-07T19:37:22;1.33;;;0.97;;
13090;SDS011;6611;52.604;13.438;2023-05-07T19:42:26;1.93;;;1.10;;
13090;SDS011;6611;52.604;13.438;2023-05-07T19:47:27;1.37;;;1.03;;
13090;SDS011;6611;52.604;13.438;2023-05-07T19:52:31;1.30;;;1.13;;
13090;SDS011;6611;52.604;13.438;2023-05-07T19:57:32;1.10;;;0.90;;
13090;SDS011;6611;52.604;13.438;2023-05-07T20:02:34;1.57;;;0.93;;
13090;SDS011;6611;52.604;13.438;2023-05-07T20:07:37;1.67;;;1.20;;
13090;SDS011;6611;52.604;13.438;2023-05-07T20:12:39;3.27;;;1.10;;
13090;SDS011;6611;52.604;13.438;2023-05-07T20:17:40;1.37;;;1.07;;
13090;SDS011;6611;52.604;13.438;2023-05-07T20:22:43;1.23;;;1.10;;
13090;SDS011;6611;52.604;13.438;2023-05-07T20:27:45;1.87;;;1.30;;
13090;SDS011;6611;52.604;13.438;2023-05-07T20:32:47;1.20;;;1.10;;
13090;SDS011;6611;52.604;13.438;2023-05-07T20:37:50;1.67;;;1.13;;
13090;SDS011;6611;52.604;13.438;2023-05-07T20:42:51;1.23;;;1.13;;
13090;SDS011;6611;52.604;13.438;2023-05-07T20:47:53;2.20;;;1.20;;
13090;SDS011;6611;52.604;13.438;2023-05-07T20:52:56;1.73;;;1.50;;
13090;SDS011;6611;52.604;13.438;2023-05-07T20:57:58;1.60;;;1.30;;
13090;SDS011;6611;52.604;13.438;2023-05-07T21:03:00;1.87;;;1.50;;
13090;SDS011;6611;52.604;13.438;2023-05-07T21:08:04;3.33;;;1.50;;
13090;SDS011;6611;52.604;13.438;2023-05-07T21:13:05;2.40;;;1.50;;
13090;SDS011;6611;52.604;13.438;2023-05-07T21:18:07;3.77;;;1.83;;
13090;SDS011;6611;52.604;13.438;2023-05-07T21:23:10;1.97;;;1.50;;
13090;SDS011;6611;52.604;13.438;2023-05-07T21:28:12;1.83;;;1.70;;
13090;SDS011;6611;52.604;13.438;2023-05-07T21:33:14;1.63;;;1.53;;
13090;SDS011;6611;52.604;13.438;2023-05-07T21:38:18;3.40;;;2.33;;
13090;SDS011;6611;52.604;13.438;2023-05-07T21:43:19;2.33;;;1.90;;
13090;SDS011;6611;52.604;13.438;2023-05-07T21:48:21;2.97;;;2.00;;
13090;SDS011;6611;52.604;13.438;2023-05-07T21:53:24;2.43;;;2.23;;
13090;SDS011;6611;52.604;13.438;2023-05-07T21:58:26;2.40;;;2.10;;
13090;SDS011;6611;52.604;13.438;2023-05-07T22:03:29;2.73;;;2.43;;
13090;SDS011;6611;52.604;13.438;2023-05-07T22:08:32;2.93;;;2.50;;
13090;SDS011;6611;52.604;13.438;2023-05-07T22:13:34;2.83;;;2.50;;
13090;SDS011;6611;52.604;13.438;2023-05-07T22:18:36;3.17;;;2.53;;
13090;SDS011;6611;52.604;13.438;2023-05-07T22:23:39;2.57;;;2.37;;
13090;SDS011;6611;52.604;13.438;2023-05-07T22:28:41;2.53;;;2.13;;
13090;SDS011;6611;52.604;13.438;2023-05-07T22:33:42;3.13;;;2.80;;
13090;SDS011;6611;52.604;13.438;2023-05-07T22:38:45;3.00;;;2.57;;
13090;SDS011;6611;52.604;13.438;2023-05-07T22:43:47;2.90;;;2.50;;
13090;SDS011;6611;52.604;13.438;2023-05-07T22:48:49;2.40;;;2.20;;
13090;SDS011;6611;52.604;13.438;2023-05-07T22:53:52;3.37;;;2.77;;
13090;SDS011;6611;52.604;13.438;2023-05-07T22:58:53;3.30;;;2.73;;
13090;SDS011;6611;52.604;13.438;2023-05-07T23:03:55;3.53;;;3.00;;
13090;SDS011;6611;52.604;13.438;2023-05-07T23:08:58;3.30;;;2.73;;
13090;SDS011;6611;52.604;13.438;2023-05-07T23:14:00;3.30;;;2.80;;
13090;SDS011;6611;52.604;13.438;2023-05-07T23:19:01;3.03;;;2.73;;
13090;SDS011;6611;52.604;13.438;2023-05-07T23:24:05;3.63;;;3.30;;
13090;SDS011;6611;52.604;13.438;2023-05-07T23:29:07;4.77;;;3.77;;
13090;SDS011;6611;52.604;13.438;2023-05-07T23:34:08;4.73;;;3.20;;
13090;SDS011;6611;52.604;13.438;2023-05-07T23:39:11;4.23;;;3.40;;
13090;SDS011;6611;52.604;13.438;2023-05-07T23:44:13;5.13;;;3.23;;
13090;SDS011;6611;52.604;13.438;2023-05-07T23:49:16;4.70;;;3.43;;
13090;SDS011;6611;52.604;13.438;2023-05-07T23:54:19;5.23;;;3.63;;
13090;SDS011;6611;52.604;13.438;2023-05-07T23:59:20;3.63;;;3.27;;
